CheckWX is a tool to help pilots better visualize weather data.  It is not intended as a substitute for an official pre-flight weather briefing.

06:57:16 UTC

ZSNJ TAF
Nanjing Lukou Airport
Nanjing, China
TAF ZSNJ 190307Z 1906/2006 11004MPS 3000 BR BKN011 OVC030 TX26/1906Z TN20/1921Z BECMG 1915/1916 2000 BECMG 2000/2001 3000 -RA BR BKN007 OVC020

Jun-19@
06:00 UTC

Jun-19 @ 06:00 UTC

Jun-19@
15:00 UTC

Jun-19 @ 15:00 UTC

TAF ZSNJ 190307Z 1906/2006 11004MPS 3000 BR BKN011 OVC030 TX26/1906Z TN20/1921Z
Wind
  • 110° at 8 KTS
Conditions
Mist
Cloud Levels
  • Broken at 1,100' AGL
  • Overcast at 3,000' AGL

Jun-19@
15:00 UTC

Jun-19 @ 15:00 UTC

Jun-20@
00:00 UTC

Jun-20 @ 00:00 UTC

BECMG 1915/1916 2000

Becoming

Becoming Conditions expected by Wed, Jun 19, 2019 @ 16:00 UTC

Wind
  • 110° at 8 KTS
Conditions
Mist
Cloud Levels
  • Broken at 1,100' AGL
  • Overcast at 3,000' AGL

Jun-20@
00:00 UTC

Jun-20 @ 00:00 UTC

Jun-20@
06:00 UTC

Jun-20 @ 06:00 UTC

BECMG 2000/2001 3000 -RA BR BKN007 OVC020

Becoming

Becoming Conditions expected by Thu, Jun 20, 2019 @ 01:00 UTC

Wind
  • 110° at 8 KTS
Conditions
Light Rain, Mist
Cloud Levels
  • Broken at 700' AGL
  • Overcast at 2,000' AGL